Time;durP1;ratioP1;P1;durP2;ratioP2;P2;SDS_P1;SDS_P2;PMS_P1;PMS_P2;Temp;Humidity;BMP_temperature;BMP_pressure;BME280_temperature;BME280_humidity;BME280_pressure;Samples;Min_cycle;Max_cycle;Signal;HPM_P1;HPM_P2
2022/07/01 00:00:46;;;;;;;;;38.00;35.00;;;;;24.83;63.86;100627.80;110860;1265;18283;-86
2022/07/01 00:03:13;;;;;;;;;35.67;30.67;;;;;24.93;63.36;100628.42;110841;1265;18892;-83
2022/07/01 00:05:40;;;;;;;;;36.67;34.00;;;;;24.98;63.33;100634.67;110863;1264;22186;-85
2022/07/01 00:08:08;;;;;;;;;38.00;32.67;;;;;24.93;63.68;100645.04;110843;1264;18277;-84
2022/07/01 00:10:37;;;;;;;;;38.00;34.00;;;;;24.83;64.12;100648.67;110884;1264;21554;-84
2022/07/01 00:13:06;;;;;;;;;36.33;35.00;;;;;24.77;64.56;100653.38;110872;1264;18819;-84
2022/07/01 00:15:33;;;;;;;;;40.33;34.00;;;;;24.73;65.10;100636.45;110876;1264;22218;-82
2022/07/01 00:18:00;;;;;;;;;36.67;34.67;;;;;24.54;66.04;100628.96;110894;1264;20158;-83
2022/07/01 00:20:28;;;;;;;;;37.00;35.00;;;;;24.39;66.98;100621.56;110895;1264;18790;-84
2022/07/01 00:22:55;;;;;;;;;42.00;38.50;;;;;24.32;67.70;100624.33;110833;1264;18256;-83
2022/07/01 00:25:22;;;;;;;;;38.67;35.00;;;;;24.35;68.10;100616.11;110822;1264;18838;-83
2022/07/01 00:27:50;;;;;;;;;44.00;37.33;;;;;24.31;68.66;100603.22;110834;1264;22093;-83
2022/07/01 00:30:17;;;;;;;;;41.33;36.33;;;;;24.40;68.71;100590.42;110799;1264;18337;-85
2022/07/01 00:32:46;;;;;;;;;41.00;37.00;;;;;24.51;68.72;100582.63;110865;1264;18857;-83
2022/07/01 00:35:13;;;;;;;;;38.67;35.00;;;;;24.60;68.64;100575.95;110699;1265;21849;-84
2022/07/01 00:37:41;;;;;;;;;40.67;37.00;;;;;24.69;68.37;100577.58;110830;1264;18512;-85
2022/07/01 00:40:08;;;;;;;;;38.50;34.50;;;;;24.66;68.64;100559.06;110784;1264;20330;-86
2022/07/01 00:42:38;;;;;;;;;40.67;37.67;;;;;24.74;68.56;100538.38;110815;1264;21948;-83
2022/07/01 00:45:05;;;;;;;;;41.50;36.50;;;;;24.95;67.52;100531.40;110855;1265;21111;-84
2022/07/01 00:47:32;;;;;;;;;38.33;34.67;;;;;24.83;67.80;100520.35;110859;1264;18995;-85
2022/07/01 00:50:00;;;;;;;;;38.00;34.50;;;;;24.87;67.81;100508.13;110814;1264;20274;-81
2022/07/01 00:52:27;;;;;;;;;35.00;29.67;;;;;24.86;67.50;100507.17;110808;1264;19676;-84
2022/07/01 00:54:55;;;;;;;;;37.50;33.50;;;;;25.00;67.27;100506.35;110843;1264;18681;-84
2022/07/01 00:57:22;;;;;;;;;35.67;33.00;;;;;25.13;66.89;100497.52;110797;1264;22220;-84
2022/07/01 00:59:49;;;;;;;;;36.67;34.67;;;;;25.26;66.45;100506.20;110802;1265;22794;-84
2022/07/01 01:02:16;;;;;;;;;39.67;34.33;;;;;25.18;66.50;100517.48;110793;1264;21639;-82
2022/07/01 01:04:44;;;;;;;;;30.00;29.33;;;;;25.06;67.20;100532.36;110845;1264;18973;-85
2022/07/01 01:07:11;;;;;;;;;35.33;31.67;;;;;25.15;67.09;100535.02;110811;1264;18265;-85
2022/07/01 01:09:40;;;;;;;;;41.00;36.00;;;;;25.06;67.16;100545.01;110836;1264;18755;-86
2022/07/01 01:12:11;;;;;;;;;36.00;32.50;;;;;24.50;69.02;100579.75;110862;1264;18735;-83
2022/07/01 01:14:38;;;;;;;;;43.00;36.00;;;;;24.52;69.23;100587.10;110885;1264;19951;-83
2022/07/01 01:17:07;;;;;;;;;38.00;35.50;;;;;24.40;69.56;100593.98;110828;1264;21984;-84
2022/07/01 01:19:34;;;;;;;;;38.00;34.00;;;;;24.45;69.59;100585.44;110838;1264;18726;-84
2022/07/01 01:22:01;;;;;;;;;34.00;30.00;;;;;24.55;68.97;100589.94;110863;1265;20316;-84
2022/07/01 01:24:29;;;;;;;;;39.00;35.00;;;;;24.55;68.83;100593.40;110846;1264;20630;-84
2022/07/01 01:26:57;;;;;;;;;39.33;34.00;;;;;24.54;68.53;100590.77;110915;1264;22138;-85
2022/07/01 01:29:24;;;;;;;;;34.33;33.00;;;;;24.56;68.16;100593.30;110866;1264;18243;-86
2022/07/01 01:31:51;;;;;;;;;31.50;28.00;;;;;24.46;68.18;100596.19;110826;1264;18666;-83
2022/07/01 01:34:19;;;;;;;;;36.00;32.33;;;;;24.47;68.16;100591.64;110817;1264;18836;-84
2022/07/01 01:36:46;;;;;;;;;30.00;29.00;;;;;24.56;67.57;100587.04;110848;1264;18227;-84
2022/07/01 01:39:14;;;;;;;;;34.67;32.67;;;;;24.77;66.97;100583.46;110811;1264;18914;-85
2022/07/01 01:41:41;;;;;;;;;33.33;32.00;;;;;24.78;66.47;100580.42;110911;1264;18713;-83
2022/07/01 01:44:08;;;;;;;;;34.00;29.00;;;;;24.81;65.89;100576.59;110868;1264;18324;-84
2022/07/01 01:46:36;;;;;;;;;32.67;28.00;;;;;24.74;65.69;100580.58;110863;1264;18677;-84
2022/07/01 01:49:03;;;;;;;;;28.00;27.50;;;;;24.49;65.89;100577.98;110872;1264;22726;-82
2022/07/01 01:51:30;;;;;;;;;27.33;24.33;;;;;24.30;66.15;100575.35;110847;1265;18566;-84
2022/07/01 01:53:58;;;;;;;;;30.00;29.00;;;;;24.28;66.05;100576.66;110887;1264;18767;-85
2022/07/01 01:56:25;;;;;;;;;28.00;25.00;;;;;24.32;65.79;100571.95;110884;1264;22317;-83
2022/07/01 01:58:52;;;;;;;;;27.33;26.33;;;;;24.58;65.02;100568.48;110799;1264;18331;-84
2022/07/01 02:01:20;;;;;;;;;28.33;27.67;;;;;24.69;64.47;100566.58;110815;1264;18851;-83
2022/07/01 02:03:47;;;;;;;;;28.50;27.50;;;;;24.77;64.08;100559.89;110861;1264;21378;-82
2022/07/01 02:06:14;;;;;;;;;28.00;25.33;;;;;24.83;63.92;100549.58;110728;1264;21144;-84
2022/07/01 02:08:42;;;;;;;;;24.50;24.50;;;;;24.97;63.51;100551.27;110929;1264;18838;-86
2022/07/01 02:11:09;;;;;;;;;32.67;29.33;;;;;24.95;63.40;100552.75;110819;1264;19783;-83
2022/07/01 02:13:36;;;;;;;;;23.33;23.33;;;;;24.91;63.24;100553.66;110807;1264;18270;-83
2022/07/01 02:16:04;;;;;;;;;24.67;24.00;;;;;24.89;63.37;100548.27;110734;1264;19073;-84
2022/07/01 02:18:32;;;;;;;;;26.00;24.00;;;;;24.96;63.07;100552.41;110740;1265;19724;-84
2022/07/01 02:20:59;;;;;;;;;28.00;25.00;;;;;25.00;62.70;100552.58;110951;1264;21774;-83
2022/07/01 02:23:27;;;;;;;;;26.33;24.67;;;;;25.00;62.61;100548.20;110794;1264;18725;-84
2022/07/01 02:25:54;;;;;;;;;28.00;24.00;;;;;25.01;62.57;100543.98;110859;1264;18717;-84
2022/07/01 02:28:21;;;;;;;;;24.33;23.67;;;;;25.13;62.31;100543.42;110872;1265;19615;-84
2022/07/01 02:30:48;;;;;;;;;23.00;22.67;;;;;25.18;62.03;100548.49;110873;1264;18706;-84
2022/07/01 02:33:16;;;;;;;;;26.50;24.00;;;;;25.16;61.77;100553.98;110877;1264;18840;-84
2022/07/01 02:35:43;;;;;;;;;26.33;24.67;;;;;25.10;61.66;100551.53;110945;1264;18276;-85
2022/07/01 02:38:10;;;;;;;;;25.00;20.00;;;;;25.14;61.70;100543.77;110926;1265;19059;-85
2022/07/01 02:40:39;;;;;;;;;27.67;23.67;;;;;25.22;61.40;100534.73;110850;1264;18995;-85
2022/07/01 02:43:07;;;;;;;;;25.00;23.67;;;;;25.26;61.50;100528.61;110830;1265;18463;-84
2022/07/01 02:45:34;;;;;;;;;26.67;23.00;;;;;25.26;61.28;100520.94;110878;1264;18703;-83
2022/07/01 02:48:01;;;;;;;;;30.00;27.00;;;;;25.19;61.52;100521.31;110921;1265;19074;-85
2022/07/01 02:50:31;;;;;;;;;25.00;24.67;;;;;25.23;61.60;100508.40;110844;1264;21198;-84
2022/07/01 02:52:59;;;;;;;;;25.50;24.50;;;;;25.25;61.24;100513.29;110884;1264;18880;-85
2022/07/01 02:55:26;;;;;;;;;29.67;26.67;;;;;24.96;61.44;100530.31;110836;1264;18798;-83
2022/07/01 02:57:53;;;;;;;;;28.67;27.33;;;;;24.82;62.03;100521.52;110845;1264;18564;-85
2022/07/01 03:00:20;;;;;;;;;27.67;26.33;;;;;24.96;61.46;100530.14;110893;1264;18814;-83
2022/07/01 03:02:48;;;;;;;;;25.67;24.00;;;;;24.67;61.60;100537.81;110912;1264;21943;-82
2022/07/01 03:05:15;;;;;;;;;28.67;25.00;;;;;24.47;62.02;100538.19;110921;1264;18989;-85
2022/07/01 03:07:42;;;;;;;;;27.33;27.00;;;;;24.46;61.71;100547.63;110908;1264;19906;-84
2022/07/01 03:10:10;;;;;;;;;26.00;25.00;;;;;24.47;61.68;100555.34;110876;1265;18705;-86
2022/07/01 03:12:40;;;;;;;;;27.00;25.00;;;;;24.50;61.51;100561.85;110837;1264;19735;-84
2022/07/01 03:15:07;;;;;;;;;26.67;23.33;;;;;24.51;61.56;100564.67;110900;1264;28847;-84
2022/07/01 03:17:34;;;;;;;;;24.67;23.00;;;;;24.54;61.65;100571.77;110918;1265;18772;-84
2022/07/01 03:20:02;;;;;;;;;23.33;22.00;;;;;24.49;61.83;100575.96;110825;1264;20762;-82
2022/07/01 03:22:29;;;;;;;;;29.00;24.00;;;;;24.40;62.26;100576.19;110893;1264;18904;-84
2022/07/01 03:24:56;;;;;;;;;21.33;21.33;;;;;24.42;62.46;100575.43;110831;1264;18751;-85
2022/07/01 03:27:23;;;;;;;;;28.00;23.33;;;;;24.25;62.71;100572.52;110856;1264;20801;-83
2022/07/01 03:29:51;;;;;;;;;22.00;19.00;;;;;24.11;63.24;100578.89;110931;1264;18810;-84
2022/07/01 03:32:18;;;;;;;;;25.00;24.00;;;;;23.99;63.84;100578.39;110823;1264;20279;-84
2022/07/01 03:34:45;;;;;;;;;22.33;21.00;;;;;23.94;63.85;100587.77;110846;1265;19781;-84
2022/07/01 03:37:13;;;;;;;;;21.00;18.33;;;;;23.88;64.20;100584.86;110884;1264;18840;-85
2022/07/01 03:39:40;;;;;;;;;23.67;21.67;;;;;23.85;64.60;100580.98;110908;1264;18867;-85
2022/07/01 03:42:08;;;;;;;;;22.00;21.50;;;;;24.09;64.12;100578.45;110834;1264;18489;-84
2022/07/01 03:44:35;;;;;;;;;22.00;21.00;;;;;24.39;63.17;100573.80;110853;1265;20585;-83
2022/07/01 03:47:02;;;;;;;;;21.00;21.00;;;;;24.65;62.33;100566.57;110851;1264;19054;-83
2022/07/01 03:49:30;;;;;;;;;23.00;22.00;;;;;24.77;61.80;100560.73;110881;1264;18415;-84
2022/07/01 03:51:57;;;;;;;;;26.33;24.67;;;;;24.89;61.53;100556.11;110878;1265;18836;-83
2022/07/01 03:54:30;;;;;;;;;26.00;26.00;;;;;24.90;61.31;100558.02;110904;1264;18998;-83
2022/07/01 03:56:57;;;;;;;;;23.33;22.67;;;;;24.72;61.74;100557.93;110864;1264;23297;-84
2022/07/01 03:59:25;;;;;;;;;24.00;22.67;;;;;24.73;61.84;100556.58;110837;1264;18763;-83
2022/07/01 04:01:53;;;;;;;;;21.67;21.67;;;;;24.69;61.92;100560.75;110895;1264;18841;-85
2022/07/01 04:04:20;;;;;;;;;21.67;20.67;;;;;24.47;62.35;100566.29;110806;1264;18314;-83
2022/07/01 04:06:47;;;;;;;;;26.00;23.00;;;;;24.27;63.24;100564.18;110842;1265;20468;-84
2022/07/01 04:09:14;;;;;;;;;27.50;24.50;;;;;24.12;63.71;100567.09;110840;1264;22054;-82
2022/07/01 04:11:42;;;;;;;;;21.00;21.00;;;;;24.08;64.14;100563.46;110860;1264;18236;-84
2022/07/01 04:14:09;;;;;;;;;26.00;24.33;;;;;24.10;64.08;100566.66;110836;1264;18742;-83
2022/07/01 04:16:36;;;;;;;;;24.67;21.00;;;;;24.12;64.08;100568.99;110821;1264;18698;-84
2022/07/01 04:19:04;;;;;;;;;22.67;22.33;;;;;23.98;64.54;100574.14;110818;1265;18637;-85
2022/07/01 04:24:16;;;;;;;;;21.00;20.33;;;;;24.05;64.81;100571.53;110860;1265;20166;-82
2022/07/01 04:26:43;;;;;;;;;22.00;22.00;;;;;24.09;64.67;100572.31;110889;1264;18293;-84
2022/07/01 04:29:11;;;;;;;;;22.00;21.50;;;;;24.03;64.78;100568.27;110883;1264;20121;-84
2022/07/01 04:31:38;;;;;;;;;27.00;24.67;;;;;23.93;64.99;100563.84;110872;1265;19804;-84
2022/07/01 04:34:05;;;;;;;;;24.67;22.67;;;;;23.96;65.13;100569.17;110884;1264;18368;-82
2022/07/01 04:36:33;;;;;;;;;22.00;21.67;;;;;24.03;65.07;100568.31;110881;1264;18897;-83
2022/07/01 04:39:00;;;;;;;;;23.00;22.67;;;;;23.91;65.47;100567.20;110864;1264;18798;-82
2022/07/01 04:44:15;;;;;;;;;25.00;24.50;;;;;24.00;65.75;100556.25;110853;1265;18824;-84
2022/07/01 04:46:42;;;;;;;;;25.00;23.00;;;;;24.11;65.51;100558.63;110853;1264;21262;-84
2022/07/01 04:49:10;;;;;;;;;28.00;24.33;;;;;23.95;66.05;100560.82;110853;1264;18425;-82
2022/07/01 04:51:37;;;;;;;;;28.33;27.00;;;;;24.08;65.89;100560.72;110843;1264;19417;-81
2022/07/01 04:54:04;;;;;;;;;27.00;25.00;;;;;24.09;65.84;100560.59;110859;1264;18829;-84
2022/07/01 04:56:32;;;;;;;;;31.67;25.33;;;;;24.05;65.93;100560.06;110846;1264;18386;-82
2022/07/01 04:59:00;;;;;;;;;28.67;27.33;;;;;24.12;65.95;100566.35;110658;1265;22064;-81
2022/07/01 05:01:28;;;;;;;;;26.67;25.67;;;;;24.28;65.73;100562.45;110799;1265;18704;-83
2022/07/01 05:03:55;;;;;;;;;30.50;26.50;;;;;24.46;65.34;100563.35;110694;1264;18386;-82
2022/07/01 05:06:22;;;;;;;;;30.00;26.00;;;;;24.49;65.13;100564.50;110859;1264;18752;-84
2022/07/01 05:08:50;;;;;;;;;30.00;26.00;;;;;24.50;65.29;100562.73;110750;1264;18849;-82
2022/07/01 05:11:17;;;;;;;;;30.33;28.00;;;;;24.51;65.33;100560.80;110693;1264;23043;-82
2022/07/01 05:13:44;;;;;;;;;30.33;26.33;;;;;24.43;65.78;100562.36;110636;1265;18593;-83
2022/07/01 05:16:11;;;;;;;;;32.67;31.67;;;;;24.47;65.95;100562.80;110693;1264;18730;-85
2022/07/01 05:24:09;;;;;;;;;30.33;28.67;;;;;24.92;64.69;100555.31;110680;1265;22312;-83
2022/07/01 05:26:36;;;;;;;;;24.00;23.67;;;;;24.87;64.92;100557.42;110751;1264;18518;-83
2022/07/01 05:29:03;;;;;;;;;30.50;27.50;;;;;24.95;64.75;100563.00;110608;1264;18823;-82
2022/07/01 05:31:31;;;;;;;;;32.00;30.00;;;;;24.85;65.08;100564.71;110673;1264;18892;-84
2022/07/01 05:33:58;;;;;;;;;33.50;31.00;;;;;24.82;65.38;100559.10;110562;1264;18346;-83
2022/07/01 05:36:25;;;;;;;;;31.00;29.33;;;;;24.94;65.07;100555.73;110799;1264;20276;-85
2022/07/01 05:38:53;;;;;;;;;33.50;29.50;;;;;25.08;64.78;100557.92;110802;1264;19072;-84
2022/07/01 05:41:20;;;;;;;;;37.33;31.67;;;;;25.20;64.18;100556.89;110618;1264;18233;-83
2022/07/01 05:43:47;;;;;;;;;39.00;32.00;;;;;25.31;64.19;100562.41;110712;1265;19920;-83
2022/07/01 05:46:15;;;;;;;;;35.00;30.33;;;;;25.30;64.47;100560.98;110727;1264;22237;-83
2022/07/01 05:48:42;;;;;;;;;33.33;32.33;;;;;25.43;64.32;100558.23;110656;1264;18661;-84
2022/07/01 05:51:09;;;;;;;;;28.00;28.00;;;;;25.51;64.12;100552.11;110804;1264;20558;-84
2022/07/01 05:53:37;;;;;;;;;30.00;28.67;;;;;25.61;64.19;100557.74;110845;1264;19652;-87
2022/07/01 05:56:04;;;;;;;;;37.67;33.67;;;;;25.61;64.06;100560.45;110680;1264;237285;-84
2022/07/01 05:58:33;;;;;;;;;33.50;31.00;;;;;25.45;64.23;100562.71;110871;1264;18691;-85
2022/07/01 06:01:00;;;;;;;;;33.67;33.00;;;;;25.30;64.65;100557.69;110780;1264;19072;-84
2022/07/01 06:03:27;;;;;;;;;36.33;33.00;;;;;25.38;64.69;100558.58;110853;1264;21249;-84
2022/07/01 06:05:55;;;;;;;;;36.00;33.00;;;;;25.32;64.78;100558.54;110909;1264;20146;-85
2022/07/01 06:08:22;;;;;;;;;33.00;31.33;;;;;25.43;64.52;100557.09;110821;1264;18844;-85
2022/07/01 06:10:49;;;;;;;;;34.00;30.00;;;;;25.46;64.48;100558.64;110851;1264;19731;-85
2022/07/01 06:13:17;;;;;;;;;35.67;33.33;;;;;25.45;64.71;100555.91;110858;1264;22036;-84
2022/07/01 06:15:44;;;;;;;;;30.50;29.00;;;;;25.49;64.73;100551.30;110827;1264;18783;-86
2022/07/01 06:18:11;;;;;;;;;35.33;32.00;;;;;25.60;64.34;100555.66;110906;1264;18338;-84
2022/07/01 06:20:38;;;;;;;;;33.00;30.50;;;;;25.62;64.23;100556.32;110925;1264;22371;-83
2022/07/01 06:23:06;;;;;;;;;40.67;34.33;;;;;25.56;64.41;100553.28;110835;1264;22118;-84
2022/07/01 06:25:33;;;;;;;;;30.33;29.00;;;;;25.53;64.41;100546.36;110856;1264;19019;-83
2022/07/01 06:28:01;;;;;;;;;38.00;35.00;;;;;25.54;64.55;100544.15;110806;1264;18653;-83
2022/07/01 06:30:28;;;;;;;;;35.33;34.00;;;;;25.60;64.41;100546.97;110843;1264;18855;-84
2022/07/01 06:32:55;;;;;;;;;34.00;29.00;;;;;25.61;64.54;100544.44;110897;1264;18884;-82
2022/07/01 06:35:23;;;;;;;;;32.67;31.33;;;;;25.66;64.54;100547.46;110808;1264;20377;-86
2022/07/01 06:37:50;;;;;;;;;42.00;36.00;;;;;25.69;64.55;100545.36;110819;1264;23201;-84
2022/07/01 06:40:17;;;;;;;;;34.00;30.67;;;;;25.75;64.30;100543.05;110813;1264;18334;-84
2022/07/01 06:42:44;;;;;;;;;34.00;33.00;;;;;25.79;64.18;100540.17;110798;1264;18817;-84
2022/07/01 06:45:12;;;;;;;;;37.00;32.00;;;;;25.79;64.40;100543.80;110720;1264;18857;-85
2022/07/01 06:47:39;;;;;;;;;38.00;33.00;;;;;25.82;63.95;100545.56;110853;1264;22324;-84
2022/07/01 06:50:06;;;;;;;;;36.67;35.33;;;;;25.80;63.95;100544.64;110798;1264;18685;-83
2022/07/01 06:52:34;;;;;;;;;35.00;31.33;;;;;25.81;64.02;100549.17;110795;1264;22170;-85
2022/07/01 06:55:01;;;;;;;;;39.67;35.33;;;;;25.86;64.03;100547.38;110851;1264;18307;-84
2022/07/01 06:57:29;;;;;;;;;36.00;35.00;;;;;25.95;63.94;100543.13;110678;1264;22807;-83
2022/07/01 06:59:56;;;;;;;;;39.00;34.67;;;;;26.03;63.77;100542.64;110793;1265;18792;-84
2022/07/01 07:02:23;;;;;;;;;41.00;34.67;;;;;26.03;63.80;100541.20;110804;1265;18285;-84
2022/07/01 07:04:54;;;;;;;;;37.33;36.00;;;;;26.02;63.92;100538.78;110800;1264;18805;-84
2022/07/01 07:07:21;;;;;;;;;36.50;34.50;;;;;26.04;64.13;100538.70;110784;1264;20526;-82
2022/07/01 07:09:48;;;;;;;;;40.00;35.00;;;;;26.11;64.05;100544.96;110837;1264;18371;-83
2022/07/01 07:12:16;;;;;;;;;36.67;33.67;;;;;26.14;63.99;100546.26;110832;1264;21135;-83
2022/07/01 07:14:43;;;;;;;;;38.33;35.00;;;;;26.13;64.12;100545.17;110860;1264;19068;-81
2022/07/01 07:17:10;;;;;;;;;37.33;34.00;;;;;26.02;64.27;100545.67;110778;1264;21260;-83
2022/07/01 07:19:38;;;;;;;;;40.67;36.33;;;;;25.96;64.63;100543.23;110722;1264;18784;-82
2022/07/01 07:22:06;;;;;;;;;36.00;35.00;;;;;25.98;64.77;100547.76;110661;1264;21574;-83
2022/07/01 07:24:33;;;;;;;;;42.00;35.50;;;;;26.00;64.81;100543.11;110677;1264;18335;-80
2022/07/01 07:27:00;;;;;;;;;44.33;37.67;;;;;26.04;64.77;100543.80;110875;1264;18741;-82
2022/07/01 07:29:29;;;;;;;;;38.50;36.00;;;;;26.09;64.66;100539.36;110782;1264;20174;-83
2022/07/01 07:31:56;;;;;;;;;38.33;32.67;;;;;26.14;64.66;100538.15;110766;1264;21625;-83
2022/07/01 07:34:24;;;;;;;;;36.67;33.67;;;;;26.25;64.65;100536.76;110772;1264;19241;-81
2022/07/01 07:36:51;;;;;;;;;36.33;33.67;;;;;26.44;64.40;100538.63;110709;1264;19029;-83
2022/07/01 07:39:18;;;;;;;;;36.33;34.00;;;;;26.55;64.04;100541.40;110822;1264;18569;-84
2022/07/01 07:41:45;;;;;;;;;38.00;36.00;;;;;26.60;64.06;100538.29;110892;1264;19427;-84
2022/07/01 07:44:13;;;;;;;;;36.50;33.50;;;;;26.63;64.07;100540.30;110813;1264;23818;-83
2022/07/01 07:46:40;;;;;;;;;40.00;37.00;;;;;26.62;63.89;100542.89;110789;1264;18315;-83
2022/07/01 07:49:07;;;;;;;;;38.67;34.67;;;;;26.66;63.95;100540.02;110821;1264;22685;-83
2022/07/01 07:51:35;;;;;;;;;42.00;38.00;;;;;26.82;63.67;100540.08;110872;1264;19446;-83
2022/07/01 07:54:02;;;;;;;;;39.00;35.00;;;;;27.06;63.11;100535.66;110833;1264;18838;-83
2022/07/01 07:56:30;;;;;;;;;36.00;35.00;;;;;27.08;63.10;100534.13;110836;1264;18826;-83
2022/07/01 07:58:57;;;;;;;;;38.00;36.50;;;;;27.08;63.10;100533.25;110738;1264;20501;-83
2022/07/01 08:01:25;;;;;;;;;39.67;37.00;;;;;27.06;62.97;100531.06;110736;1264;19084;-81
2022/07/01 08:03:55;;;;;;;;;38.50;33.50;;;;;27.12;62.76;100524.73;110810;1264;21341;-82
2022/07/01 08:06:22;;;;;;;;;42.00;37.00;;;;;27.27;62.34;100522.92;110844;1264;18728;-83
2022/07/01 08:08:50;;;;;;;;;38.67;36.00;;;;;27.32;62.24;100521.87;110840;1264;18276;-82
2022/07/01 08:11:19;;;;;;;;;44.33;38.00;;;;;27.44;61.65;100523.23;110780;1264;21757;-82
2022/07/01 08:13:46;;;;;;;;;38.33;35.67;;;;;27.34;61.61;100520.95;110843;1264;18908;-82
2022/07/01 08:16:14;;;;;;;;;43.33;38.00;;;;;27.40;61.41;100521.92;110774;1264;18310;-81
2022/07/01 08:18:41;;;;;;;;;45.00;37.33;;;;;27.50;61.17;100518.86;110833;1264;18799;-82
2022/07/01 08:21:08;;;;;;;;;39.67;35.67;;;;;27.55;60.81;100517.75;110850;1264;18683;-81
2022/07/01 08:23:36;;;;;;;;;40.00;36.00;;;;;27.62;60.54;100516.02;110893;1264;21626;-81
2022/07/01 08:26:03;;;;;;;;;43.00;37.00;;;;;27.71;60.25;100511.23;110853;1264;18728;-79
2022/07/01 08:28:30;;;;;;;;;49.33;38.67;;;;;27.72;60.17;100511.92;110724;1264;18805;-81
2022/07/01 08:30:58;;;;;;;;;42.50;37.00;;;;;27.63;60.33;100503.69;110635;1264;22406;-80
2022/07/01 08:33:25;;;;;;;;;41.33;36.00;;;;;27.63;60.64;100503.09;110759;1264;18908;-78
2022/07/01 08:35:52;;;;;;;;;46.67;38.00;;;;;27.80;59.95;100506.54;110844;1264;18836;-80
2022/07/01 08:38:20;;;;;;;;;42.33;37.67;;;;;27.82;59.51;100501.89;110793;1265;22851;-80
2022/07/01 08:40:47;;;;;;;;;45.50;39.00;;;;;27.77;59.85;100500.17;110824;1264;18829;-82
2022/07/01 08:43:14;;;;;;;;;42.00;37.00;;;;;27.71;60.00;100499.73;110786;1264;23100;-82
2022/07/01 08:45:42;;;;;;;;;41.50;37.00;;;;;27.76;60.12;100501.59;110868;1264;19904;-81
2022/07/01 08:48:09;;;;;;;;;42.00;37.00;;;;;27.83;60.21;100498.61;110896;1264;21569;-80
2022/07/01 08:50:37;;;;;;;;;45.67;38.00;;;;;27.88;60.17;100492.41;110804;1264;18794;-80
2022/07/01 08:53:04;;;;;;;;;44.50;38.50;;;;;27.82;60.24;100496.30;110799;1264;18219;-80
2022/07/01 08:55:31;;;;;;;;;44.00;37.33;;;;;27.73;60.49;100492.29;110767;1264;22390;-81
2022/07/01 08:57:59;;;;;;;;;44.67;37.00;;;;;27.75;60.60;100493.80;110732;1264;20452;-81
2022/07/01 09:00:26;;;;;;;;;47.33;40.00;;;;;27.86;60.67;100492.90;110771;1264;18331;-81
2022/07/01 09:02:53;;;;;;;;;42.00;37.00;;;;;27.82;60.72;100487.65;110854;1264;20869;-81
2022/07/01 09:05:20;;;;;;;;;46.33;40.00;;;;;27.77;60.93;100494.45;110813;1264;19153;-78
2022/07/01 09:07:48;;;;;;;;;44.00;38.00;;;;;27.96;60.90;100489.56;110814;1264;18715;-81
2022/07/01 09:10:17;;;;;;;;;46.00;38.00;;;;;28.19;60.24;100490.16;110818;1265;19963;-79
2022/07/01 09:12:45;;;;;;;;;46.00;38.00;;;;;28.30;59.79;100489.42;110772;1264;18897;-79
2022/07/01 09:15:12;;;;;;;;;48.00;40.00;;;;;28.38;59.64;100484.54;110753;1265;20393;-81
2022/07/01 09:17:39;;;;;;;;;47.00;40.00;;;;;28.45;59.36;100486.67;110746;1264;18961;-80
2022/07/01 09:20:07;;;;;;;;;48.33;40.33;;;;;28.53;58.86;100484.35;110679;1265;20470;-79
2022/07/01 09:22:34;;;;;;;;;47.33;39.33;;;;;28.58;58.48;100484.08;110777;1264;18408;-79
2022/07/01 09:25:01;;;;;;;;;48.33;39.67;;;;;28.60;58.19;100480.02;110738;1264;20996;-82
2022/07/01 09:27:29;;;;;;;;;51.00;42.00;;;;;28.54;58.01;100481.30;110730;1264;18702;-81
2022/07/01 09:29:56;;;;;;;;;45.50;40.00;;;;;28.67;57.24;100481.08;110777;1264;18294;-81
2022/07/01 09:32:23;;;;;;;;;49.33;40.67;;;;;28.70;56.77;100484.65;110725;1264;18903;-80
2022/07/01 09:34:51;;;;;;;;;48.00;40.00;;;;;28.79;56.29;100481.08;110724;1264;21782;-81
2022/07/01 09:37:19;;;;;;;;;48.00;41.00;;;;;28.96;55.96;100477.46;110725;1264;18333;-79
2022/07/01 09:39:46;;;;;;;;;49.00;40.33;;;;;29.15;55.01;100469.40;110687;1264;21727;-82
2022/07/01 09:42:13;;;;;;;;;46.00;40.00;;;;;29.00;55.25;100463.52;110739;1264;20864;-81
2022/07/01 09:44:41;;;;;;;;;48.67;41.67;;;;;28.93;55.59;100459.38;110774;1264;18332;-82
2022/07/01 09:47:08;;;;;;;;;49.00;41.67;;;;;28.98;55.50;100463.40;110691;1264;18660;-81
2022/07/01 09:49:37;;;;;;;;;48.33;40.67;;;;;29.27;54.28;100459.70;110692;1265;19151;-83
2022/07/01 09:52:04;;;;;;;;;49.00;41.50;;;;;29.12;54.61;100456.13;110609;1264;21961;-82
2022/07/01 09:54:31;;;;;;;;;50.00;40.00;;;;;29.32;54.51;100461.83;110710;1264;19676;-83
2022/07/01 09:56:59;;;;;;;;;48.33;40.67;;;;;29.31;54.32;100457.19;110899;1264;20410;-84
2022/07/01 09:59:31;;;;;;;;;47.00;39.50;;;;;29.13;54.79;100454.89;110742;1264;21945;-85
2022/07/01 10:02:01;;;;;;;;;53.00;43.00;;;;;29.18;54.84;100462.19;110709;1265;22098;-84
2022/07/01 10:04:28;;;;;;;;;47.50;40.50;;;;;29.28;54.49;100448.89;110733;1264;21769;-85
2022/07/01 10:06:55;;;;;;;;;49.00;40.00;;;;;29.42;54.44;100459.45;110728;1264;18360;-83
2022/07/01 10:09:23;;;;;;;;;48.33;40.00;;;;;29.50;54.18;100455.19;110780;1265;18741;-84
2022/07/01 10:11:50;;;;;;;;;45.00;40.00;;;;;29.27;54.65;100454.84;110727;1265;21530;-83
2022/07/01 10:14:17;;;;;;;;;48.00;40.00;;;;;29.04;55.48;100448.61;110695;1264;22951;-82
2022/07/01 10:16:45;;;;;;;;;51.00;40.33;;;;;29.30;55.21;100447.78;110768;1264;18906;-84
2022/07/01 10:19:12;;;;;;;;;43.67;38.33;;;;;29.71;54.35;100450.75;110671;1264;18819;-83
2022/07/01 10:21:39;;;;;;;;;47.67;40.67;;;;;29.93;53.60;100444.14;110741;1265;18848;-83
2022/07/01 10:24:07;;;;;;;;;46.00;39.33;;;;;29.65;54.19;100442.78;110756;1264;18824;-83
2022/07/01 10:26:36;;;;;;;;;47.00;40.00;;;;;29.60;54.53;100436.48;110834;1264;19311;-83
2022/07/01 10:29:03;;;;;;;;;47.33;39.67;;;;;29.60;54.47;100437.59;110840;1264;18297;-83
2022/07/01 10:31:31;;;;;;;;;44.00;38.00;;;;;29.67;53.94;100429.63;110815;1264;19591;-83
2022/07/01 10:33:58;;;;;;;;;42.33;37.00;;;;;29.58;54.11;100424.52;110793;1264;21907;-83
2022/07/01 10:36:27;;;;;;;;;51.00;39.00;;;;;29.54;54.26;100428.98;110836;1264;21603;-84
2022/07/01 10:38:54;;;;;;;;;46.67;39.67;;;;;29.65;54.02;100419.86;110816;1265;18809;-83
2022/07/01 10:41:21;;;;;;;;;43.00;37.33;;;;;29.65;54.14;100418.15;110742;1264;19186;-83
2022/07/01 10:43:48;;;;;;;;;43.67;38.00;;;;;29.49;54.66;100424.48;110627;1264;18236;-83
2022/07/01 10:46:16;;;;;;;;;41.50;36.50;;;;;29.46;54.72;100423.27;110799;1264;18898;-82
2022/07/01 10:48:43;;;;;;;;;48.50;39.50;;;;;29.60;54.67;100414.66;110717;1264;19388;-81
2022/07/01 10:51:15;;;;;;;;;46.67;39.00;;;;;29.71;54.44;100407.52;110879;1264;18202;-82
2022/07/01 10:53:42;;;;;;;;;44.00;38.00;;;;;29.74;54.58;100405.86;110890;1264;22269;-84
2022/07/01 10:56:10;;;;;;;;;45.00;38.33;;;;;29.78;54.48;100398.92;110855;1264;19073;-82
2022/07/01 10:58:37;;;;;;;;;50.33;40.00;;;;;29.84;54.22;100398.20;110828;1264;27702;-81
2022/07/01 11:01:05;;;;;;;;;46.33;37.00;;;;;29.92;53.87;100400.09;110866;1264;18706;-82
2022/07/01 11:03:32;;;;;;;;;38.00;35.00;;;;;29.80;54.22;100401.61;110834;1264;20213;-85
2022/07/01 11:05:59;;;;;;;;;41.67;37.00;;;;;29.89;53.82;100404.21;110880;1264;21496;-84
2022/07/01 11:08:27;;;;;;;;;41.67;36.67;;;;;30.24;52.17;100408.50;110865;1264;18879;-85
2022/07/01 11:10:54;;;;;;;;;39.33;36.00;;;;;30.23;51.32;100404.40;110822;1264;18833;-83
2022/07/01 11:13:21;;;;;;;;;40.33;36.67;;;;;30.21;50.83;100396.20;110749;1264;18210;-83